sensor_id;sensor_type;location;lat;lon;timestamp;P1;durP1;ratioP1;P2;durP2;ratioP2
60847;SDS011;46681;47.696;9.140;2022-08-05T00:00:33;5.00;;;1.90;;
60847;SDS011;46681;47.696;9.140;2022-08-05T00:02:59;4.72;;;1.77;;
60847;SDS011;46681;47.696;9.140;2022-08-05T00:05:24;5.72;;;1.95;;
60847;SDS011;46681;47.696;9.140;2022-08-05T00:07:50;5.22;;;1.98;;
60847;SDS011;46681;47.696;9.140;2022-08-05T00:10:19;5.30;;;1.80;;
60847;SDS011;46681;47.696;9.140;2022-08-05T00:12:50;4.88;;;1.92;;
60847;SDS011;46681;47.696;9.140;2022-08-05T00:15:16;6.18;;;2.10;;
60847;SDS011;46681;47.696;9.140;2022-08-05T00:17:41;5.03;;;1.90;;
60847;SDS011;46681;47.696;9.140;2022-08-05T00:20:07;5.93;;;1.98;;
60847;SDS011;46681;47.696;9.140;2022-08-05T00:22:34;5.15;;;1.80;;
60847;SDS011;46681;47.696;9.140;2022-08-05T00:25:02;4.68;;;1.80;;
60847;SDS011;46681;47.696;9.140;2022-08-05T00:27:28;5.85;;;2.00;;
60847;SDS011;46681;47.696;9.140;2022-08-05T00:29:53;6.28;;;1.92;;
60847;SDS011;46681;47.696;9.140;2022-08-05T00:32:24;6.05;;;2.05;;
60847;SDS011;46681;47.696;9.140;2022-08-05T00:34:53;5.20;;;1.90;;
60847;SDS011;46681;47.696;9.140;2022-08-05T00:37:19;5.45;;;1.92;;
60847;SDS011;46681;47.696;9.140;2022-08-05T00:39:46;5.53;;;2.00;;
60847;SDS011;46681;47.696;9.140;2022-08-05T00:42:12;7.38;;;2.20;;
60847;SDS011;46681;47.696;9.140;2022-08-05T00:44:41;5.50;;;1.92;;
60847;SDS011;46681;47.696;9.140;2022-08-05T00:47:07;5.78;;;2.00;;
60847;SDS011;46681;47.696;9.140;2022-08-05T00:49:33;5.85;;;2.10;;
60847;SDS011;46681;47.696;9.140;2022-08-05T00:51:59;6.15;;;1.95;;
60847;SDS011;46681;47.696;9.140;2022-08-05T00:54:24;5.82;;;2.00;;
60847;SDS011;46681;47.696;9.140;2022-08-05T00:56:50;7.85;;;2.00;;
60847;SDS011;46681;47.696;9.140;2022-08-05T00:59:15;5.82;;;1.90;;
60847;SDS011;46681;47.696;9.140;2022-08-05T01:01:41;6.22;;;2.00;;
60847;SDS011;46681;47.696;9.140;2022-08-05T01:04:07;5.63;;;1.80;;
60847;SDS011;46681;47.696;9.140;2022-08-05T01:06:32;6.30;;;1.90;;
60847;SDS011;46681;47.696;9.140;2022-08-05T01:08:58;5.40;;;1.80;;
60847;SDS011;46681;47.696;9.140;2022-08-05T01:11:31;6.38;;;2.25;;
60847;SDS011;46681;47.696;9.140;2022-08-05T01:19:25;6.10;;;1.98;;
60847;SDS011;46681;47.696;9.140;2022-08-05T01:30:31;5.65;;;2.15;;
60847;SDS011;46681;47.696;9.140;2022-08-05T01:33:04;6.05;;;2.00;;
60847;SDS011;46681;47.696;9.140;2022-08-05T01:35:34;5.47;;;2.10;;
60847;SDS011;46681;47.696;9.140;2022-08-05T01:38:11;5.93;;;2.10;;
60847;SDS011;46681;47.696;9.140;2022-08-05T01:40:43;5.20;;;1.92;;
60847;SDS011;46681;47.696;9.140;2022-08-05T01:43:15;5.60;;;2.10;;
60847;SDS011;46681;47.696;9.140;2022-08-05T01:45:41;6.18;;;2.10;;
60847;SDS011;46681;47.696;9.140;2022-08-05T01:48:07;5.18;;;2.15;;
60847;SDS011;46681;47.696;9.140;2022-08-05T01:50:41;6.18;;;2.00;;
60847;SDS011;46681;47.696;9.140;2022-08-05T01:53:09;5.78;;;2.00;;
60847;SDS011;46681;47.696;9.140;2022-08-05T01:55:44;7.18;;;2.20;;
60847;SDS011;46681;47.696;9.140;2022-08-05T01:58:12;5.13;;;1.90;;
60847;SDS011;46681;47.696;9.140;2022-08-05T02:00:44;6.53;;;2.15;;
60847;SDS011;46681;47.696;9.140;2022-08-05T02:03:28;5.50;;;2.08;;
60847;SDS011;46681;47.696;9.140;2022-08-05T02:08:38;6.78;;;2.22;;
60847;SDS011;46681;47.696;9.140;2022-08-05T02:11:14;6.20;;;2.13;;
60847;SDS011;46681;47.696;9.140;2022-08-05T02:17:22;6.32;;;2.15;;
60847;SDS011;46681;47.696;9.140;2022-08-05T02:20:12;6.05;;;2.10;;
60847;SDS011;46681;47.696;9.140;2022-08-05T02:23:00;6.18;;;2.20;;
60847;SDS011;46681;47.696;9.140;2022-08-05T02:25:35;6.75;;;2.20;;
60847;SDS011;46681;47.696;9.140;2022-08-05T02:28:09;6.53;;;2.05;;
60847;SDS011;46681;47.696;9.140;2022-08-05T02:30:46;6.50;;;2.20;;
60847;SDS011;46681;47.696;9.140;2022-08-05T02:33:15;5.80;;;2.10;;
60847;SDS011;46681;47.696;9.140;2022-08-05T02:35:50;6.28;;;2.20;;
60847;SDS011;46681;47.696;9.140;2022-08-05T02:38:21;5.95;;;2.10;;
60847;SDS011;46681;47.696;9.140;2022-08-05T02:40:52;6.15;;;2.13;;
60847;SDS011;46681;47.696;9.140;2022-08-05T02:43:20;5.78;;;2.00;;
60847;SDS011;46681;47.696;9.140;2022-08-05T02:45:48;5.55;;;2.10;;
60847;SDS011;46681;47.696;9.140;2022-08-05T02:48:15;7.18;;;2.08;;
60847;SDS011;46681;47.696;9.140;2022-08-05T02:50:51;7.57;;;2.13;;
60847;SDS011;46681;47.696;9.140;2022-08-05T02:53:18;7.18;;;2.33;;
60847;SDS011;46681;47.696;9.140;2022-08-05T02:55:48;10.55;;;2.30;;
60847;SDS011;46681;47.696;9.140;2022-08-05T02:58:15;8.45;;;2.50;;
60847;SDS011;46681;47.696;9.140;2022-08-05T03:00:51;7.82;;;2.22;;
60847;SDS011;46681;47.696;9.140;2022-08-05T03:03:30;5.57;;;2.10;;
60847;SDS011;46681;47.696;9.140;2022-08-05T03:05:56;6.13;;;2.03;;
60847;SDS011;46681;47.696;9.140;2022-08-05T03:08:29;6.80;;;2.20;;
60847;SDS011;46681;47.696;9.140;2022-08-05T03:10:55;7.25;;;2.20;;
60847;SDS011;46681;47.696;9.140;2022-08-05T03:13:21;6.35;;;2.10;;
60847;SDS011;46681;47.696;9.140;2022-08-05T03:15:48;6.00;;;2.00;;
60847;SDS011;46681;47.696;9.140;2022-08-05T03:18:13;7.03;;;2.20;;
60847;SDS011;46681;47.696;9.140;2022-08-05T03:20:39;9.50;;;2.00;;
60847;SDS011;46681;47.696;9.140;2022-08-05T03:23:05;7.30;;;2.00;;
60847;SDS011;46681;47.696;9.140;2022-08-05T03:25:39;7.85;;;2.00;;
60847;SDS011;46681;47.696;9.140;2022-08-05T03:28:09;5.88;;;2.00;;
60847;SDS011;46681;47.696;9.140;2022-08-05T03:30:40;8.07;;;2.00;;
60847;SDS011;46681;47.696;9.140;2022-08-05T03:33:06;6.30;;;2.05;;
60847;SDS011;46681;47.696;9.140;2022-08-05T03:35:44;6.28;;;2.13;;
60847;SDS011;46681;47.696;9.140;2022-08-05T03:38:23;5.55;;;1.90;;
60847;SDS011;46681;47.696;9.140;2022-08-05T03:40:53;5.70;;;1.98;;
60847;SDS011;46681;47.696;9.140;2022-08-05T03:43:20;6.32;;;1.98;;
60847;SDS011;46681;47.696;9.140;2022-08-05T03:45:46;6.72;;;2.03;;
60847;SDS011;46681;47.696;9.140;2022-08-05T03:48:12;5.75;;;1.90;;
60847;SDS011;46681;47.696;9.140;2022-08-05T03:53:30;5.40;;;2.10;;
60847;SDS011;46681;47.696;9.140;2022-08-05T03:56:21;5.70;;;2.00;;
60847;SDS011;46681;47.696;9.140;2022-08-05T03:59:01;5.57;;;1.98;;
60847;SDS011;46681;47.696;9.140;2022-08-05T04:01:38;5.65;;;1.80;;
60847;SDS011;46681;47.696;9.140;2022-08-05T04:04:11;5.07;;;1.80;;
60847;SDS011;46681;47.696;9.140;2022-08-05T04:06:41;5.28;;;1.98;;
60847;SDS011;46681;47.696;9.140;2022-08-05T04:09:11;5.20;;;2.00;;
60847;SDS011;46681;47.696;9.140;2022-08-05T04:11:41;6.00;;;2.00;;
60847;SDS011;46681;47.696;9.140;2022-08-05T04:14:12;5.90;;;1.95;;
60847;SDS011;46681;47.696;9.140;2022-08-05T04:16:38;6.22;;;2.15;;
60847;SDS011;46681;47.696;9.140;2022-08-05T04:19:04;5.35;;;1.90;;
60847;SDS011;46681;47.696;9.140;2022-08-05T04:21:29;4.88;;;1.75;;
60847;SDS011;46681;47.696;9.140;2022-08-05T04:23:55;4.95;;;1.75;;
60847;SDS011;46681;47.696;9.140;2022-08-05T04:26:21;4.20;;;1.70;;
60847;SDS011;46681;47.696;9.140;2022-08-05T04:28:47;7.78;;;2.10;;
60847;SDS011;46681;47.696;9.140;2022-08-05T04:31:15;4.07;;;1.70;;
60847;SDS011;46681;47.696;9.140;2022-08-05T04:33:46;5.03;;;1.70;;
60847;SDS011;46681;47.696;9.140;2022-08-05T04:36:12;5.00;;;1.90;;
60847;SDS011;46681;47.696;9.140;2022-08-05T04:38:42;4.93;;;1.80;;
60847;SDS011;46681;47.696;9.140;2022-08-05T04:41:13;4.70;;;1.80;;
60847;SDS011;46681;47.696;9.140;2022-08-05T04:43:40;4.82;;;1.83;;
60847;SDS011;46681;47.696;9.140;2022-08-05T04:46:06;5.78;;;1.90;;
60847;SDS011;46681;47.696;9.140;2022-08-05T04:48:39;5.88;;;1.92;;
60847;SDS011;46681;47.696;9.140;2022-08-05T04:51:05;5.15;;;1.88;;
60847;SDS011;46681;47.696;9.140;2022-08-05T04:53:33;5.45;;;2.00;;
60847;SDS011;46681;47.696;9.140;2022-08-05T04:56:11;6.95;;;1.90;;
60847;SDS011;46681;47.696;9.140;2022-08-05T04:58:38;6.50;;;2.03;;
60847;SDS011;46681;47.696;9.140;2022-08-05T05:01:07;5.03;;;1.90;;
60847;SDS011;46681;47.696;9.140;2022-08-05T05:03:33;5.20;;;1.80;;
60847;SDS011;46681;47.696;9.140;2022-08-05T05:06:09;5.13;;;1.85;;
60847;SDS011;46681;47.696;9.140;2022-08-05T05:08:45;4.38;;;1.80;;
60847;SDS011;46681;47.696;9.140;2022-08-05T05:11:14;4.88;;;1.70;;
60847;SDS011;46681;47.696;9.140;2022-08-05T05:13:39;6.35;;;1.80;;
60847;SDS011;46681;47.696;9.140;2022-08-05T05:16:08;4.75;;;1.77;;
60847;SDS011;46681;47.696;9.140;2022-08-05T05:18:35;5.53;;;1.95;;
60847;SDS011;46681;47.696;9.140;2022-08-05T05:21:01;6.43;;;2.00;;
60847;SDS011;46681;47.696;9.140;2022-08-05T05:23:32;5.30;;;1.85;;
60847;SDS011;46681;47.696;9.140;2022-08-05T05:25:59;4.35;;;1.83;;
60847;SDS011;46681;47.696;9.140;2022-08-05T05:28:25;4.70;;;1.75;;
60847;SDS011;46681;47.696;9.140;2022-08-05T05:30:59;5.32;;;1.90;;
60847;SDS011;46681;47.696;9.140;2022-08-05T05:33:38;5.43;;;2.00;;
60847;SDS011;46681;47.696;9.140;2022-08-05T05:36:06;6.05;;;2.08;;
60847;SDS011;46681;47.696;9.140;2022-08-05T05:38:43;15.05;;;2.83;;
60847;SDS011;46681;47.696;9.140;2022-08-05T05:41:28;9.50;;;2.33;;
60847;SDS011;46681;47.696;9.140;2022-08-05T05:43:54;13.50;;;2.55;;
60847;SDS011;46681;47.696;9.140;2022-08-05T05:46:23;11.50;;;2.70;;
60847;SDS011;46681;47.696;9.140;2022-08-05T05:48:48;14.98;;;3.00;;
60847;SDS011;46681;47.696;9.140;2022-08-05T05:51:22;16.17;;;3.60;;
60847;SDS011;46681;47.696;9.140;2022-08-05T05:53:54;14.90;;;3.00;;
60847;SDS011;46681;47.696;9.140;2022-08-05T05:56:23;10.57;;;2.70;;
60847;SDS011;46681;47.696;9.140;2022-08-05T05:58:52;12.55;;;2.80;;
60847;SDS011;46681;47.696;9.140;2022-08-05T06:01:24;12.82;;;2.90;;
60847;SDS011;46681;47.696;9.140;2022-08-05T06:03:51;14.13;;;2.85;;
60847;SDS011;46681;47.696;9.140;2022-08-05T06:06:20;10.13;;;2.70;;
60847;SDS011;46681;47.696;9.140;2022-08-05T06:08:59;10.40;;;2.60;;
60847;SDS011;46681;47.696;9.140;2022-08-05T06:11:35;10.50;;;2.45;;
60847;SDS011;46681;47.696;9.140;2022-08-05T06:14:03;9.75;;;2.40;;
60847;SDS011;46681;47.696;9.140;2022-08-05T06:16:38;10.57;;;2.40;;
60847;SDS011;46681;47.696;9.140;2022-08-05T06:19:19;10.23;;;2.47;;
60847;SDS011;46681;47.696;9.140;2022-08-05T06:22:11;7.03;;;2.20;;
60847;SDS011;46681;47.696;9.140;2022-08-05T06:24:47;9.25;;;2.45;;
60847;SDS011;46681;47.696;9.140;2022-08-05T06:27:25;8.30;;;2.30;;
60847;SDS011;46681;47.696;9.140;2022-08-05T06:30:20;8.52;;;2.60;;
60847;SDS011;46681;47.696;9.140;2022-08-05T06:32:54;9.95;;;2.40;;
60847;SDS011;46681;47.696;9.140;2022-08-05T06:35:23;7.80;;;2.20;;
60847;SDS011;46681;47.696;9.140;2022-08-05T06:38:03;7.93;;;2.40;;
60847;SDS011;46681;47.696;9.140;2022-08-05T06:40:33;7.47;;;2.20;;
60847;SDS011;46681;47.696;9.140;2022-08-05T06:43:04;8.20;;;2.08;;
60847;SDS011;46681;47.696;9.140;2022-08-05T06:45:44;7.78;;;2.40;;
60847;SDS011;46681;47.696;9.140;2022-08-05T06:48:10;8.20;;;2.30;;
60847;SDS011;46681;47.696;9.140;2022-08-05T06:50:52;7.25;;;1.90;;
60847;SDS011;46681;47.696;9.140;2022-08-05T06:53:44;7.18;;;2.20;;
60847;SDS011;46681;47.696;9.140;2022-08-05T06:56:22;9.15;;;2.20;;
60847;SDS011;46681;47.696;9.140;2022-08-05T06:58:53;8.18;;;2.15;;
60847;SDS011;46681;47.696;9.140;2022-08-05T07:01:38;6.65;;;2.10;;
60847;SDS011;46681;47.696;9.140;2022-08-05T07:04:25;7.25;;;2.08;;
60847;SDS011;46681;47.696;9.140;2022-08-05T07:06:58;6.30;;;1.90;;
60847;SDS011;46681;47.696;9.140;2022-08-05T07:12:14;7.55;;;2.10;;
60847;SDS011;46681;47.696;9.140;2022-08-05T07:15:00;7.55;;;2.00;;
60847;SDS011;46681;47.696;9.140;2022-08-05T07:17:35;6.88;;;2.20;;
60847;SDS011;46681;47.696;9.140;2022-08-05T07:20:26;6.70;;;2.20;;
60847;SDS011;46681;47.696;9.140;2022-08-05T07:22:55;8.10;;;2.13;;
60847;SDS011;46681;47.696;9.140;2022-08-05T07:25:37;6.55;;;2.00;;
60847;SDS011;46681;47.696;9.140;2022-08-05T07:28:20;6.22;;;2.15;;
60847;SDS011;46681;47.696;9.140;2022-08-05T07:30:59;6.60;;;2.10;;
60847;SDS011;46681;47.696;9.140;2022-08-05T07:33:26;7.65;;;2.10;;
60847;SDS011;46681;47.696;9.140;2022-08-05T07:35:59;6.72;;;2.10;;
60847;SDS011;46681;47.696;9.140;2022-08-05T07:38:32;7.05;;;2.20;;
60847;SDS011;46681;47.696;9.140;2022-08-05T07:45:03;6.40;;;2.08;;
60847;SDS011;46681;47.696;9.140;2022-08-05T07:48:21;6.90;;;2.05;;
60847;SDS011;46681;47.696;9.140;2022-08-05T07:53:58;5.20;;;1.67;;
60847;SDS011;46681;47.696;9.140;2022-08-05T08:02:42;5.53;;;1.88;;
60847;SDS011;46681;47.696;9.140;2022-08-05T08:06:09;6.75;;;2.10;;
60847;SDS011;46681;47.696;9.140;2022-08-05T08:08:45;7.05;;;2.00;;
60847;SDS011;46681;47.696;9.140;2022-08-05T08:11:50;5.45;;;1.80;;
60847;SDS011;46681;47.696;9.140;2022-08-05T08:14:26;4.40;;;1.70;;
60847;SDS011;46681;47.696;9.140;2022-08-05T08:17:00;8.00;;;1.85;;
60847;SDS011;46681;47.696;9.140;2022-08-05T08:19:44;5.60;;;1.80;;
60847;SDS011;46681;47.696;9.140;2022-08-05T08:22:35;4.38;;;1.60;;
60847;SDS011;46681;47.696;9.140;2022-08-05T08:25:22;6.00;;;1.92;;
60847;SDS011;46681;47.696;9.140;2022-08-05T08:28:00;6.82;;;1.98;;
60847;SDS011;46681;47.696;9.140;2022-08-05T08:30:40;6.90;;;1.90;;
60847;SDS011;46681;47.696;9.140;2022-08-05T08:36:10;6.32;;;1.83;;
60847;SDS011;46681;47.696;9.140;2022-08-05T08:38:46;6.82;;;1.98;;
60847;SDS011;46681;47.696;9.140;2022-08-05T08:41:16;5.60;;;1.90;;
60847;SDS011;46681;47.696;9.140;2022-08-05T08:44:09;5.40;;;1.90;;
60847;SDS011;46681;47.696;9.140;2022-08-05T08:50:18;5.03;;;1.80;;
60847;SDS011;46681;47.696;9.140;2022-08-05T08:59:47;5.43;;;1.75;;
60847;SDS011;46681;47.696;9.140;2022-08-05T09:09:20;7.10;;;1.92;;
60847;SDS011;46681;47.696;9.140;2022-08-05T09:12:18;5.68;;;1.90;;
60847;SDS011;46681;47.696;9.140;2022-08-05T09:14:55;7.43;;;1.80;;
60847;SDS011;46681;47.696;9.140;2022-08-05T09:17:39;8.90;;;2.10;;
60847;SDS011;46681;47.696;9.140;2022-08-05T09:20:13;7.47;;;2.20;;
60847;SDS011;46681;47.696;9.140;2022-08-05T09:26:09;8.43;;;2.20;;
60847;SDS011;46681;47.696;9.140;2022-08-05T09:29:36;6.97;;;2.13;;
60847;SDS011;46681;47.696;9.140;2022-08-05T09:32:53;6.22;;;2.10;;
60847;SDS011;46681;47.696;9.140;2022-08-05T09:51:31;5.90;;;1.98;;
60847;SDS011;46681;47.696;9.140;2022-08-05T10:04:01;6.43;;;1.90;;
60847;SDS011;46681;47.696;9.140;2022-08-05T10:13:24;6.95;;;1.92;;
60847;SDS011;46681;47.696;9.140;2022-08-05T10:16:48;6.88;;;2.20;;
60847;SDS011;46681;47.696;9.140;2022-08-05T10:22:15;5.75;;;1.70;;
60847;SDS011;46681;47.696;9.140;2022-08-05T10:25:39;7.65;;;1.90;;
60847;SDS011;46681;47.696;9.140;2022-08-05T10:29:01;5.85;;;1.75;;
60847;SDS011;46681;47.696;9.140;2022-08-05T10:44:22;5.97;;;1.77;;
60847;SDS011;46681;47.696;9.140;2022-08-05T10:50:14;6.72;;;1.73;;
60847;SDS011;46681;47.696;9.140;2022-08-05T10:53:56;5.78;;;1.77;;
60847;SDS011;46681;47.696;9.140;2022-08-05T11:05:42;5.80;;;1.75;;
60847;SDS011;46681;47.696;9.140;2022-08-05T11:15:27;4.70;;;1.70;;
60847;SDS011;46681;47.696;9.140;2022-08-05T11:18:44;7.10;;;1.73;;
60847;SDS011;46681;47.696;9.140;2022-08-05T11:21:53;4.80;;;1.50;;
60847;SDS011;46681;47.696;9.140;2022-08-05T11:40:34;5.03;;;1.60;;
60847;SDS011;46681;47.696;9.140;2022-08-05T11:46:40;4.82;;;1.65;;
60847;SDS011;46681;47.696;9.140;2022-08-05T11:49:23;4.05;;;1.40;;
60847;SDS011;46681;47.696;9.140;2022-08-05T11:55:17;4.20;;;1.60;;
60847;SDS011;46681;47.696;9.140;2022-08-05T11:57:49;5.40;;;1.70;;
60847;SDS011;46681;47.696;9.140;2022-08-05T12:00:59;4.22;;;1.50;;
60847;SDS011;46681;47.696;9.140;2022-08-05T12:10:09;5.40;;;1.50;;
60847;SDS011;46681;47.696;9.140;2022-08-05T12:12:46;4.70;;;1.60;;
60847;SDS011;46681;47.696;9.140;2022-08-05T12:19:02;5.35;;;1.73;;
60847;SDS011;46681;47.696;9.140;2022-08-05T12:22:06;4.93;;;1.52;;
60847;SDS011;46681;47.696;9.140;2022-08-05T12:24:52;4.22;;;1.60;;
60847;SDS011;46681;47.696;9.140;2022-08-05T12:27:57;7.35;;;1.70;;
60847;SDS011;46681;47.696;9.140;2022-08-05T12:31:16;4.20;;;1.50;;
60847;SDS011;46681;47.696;9.140;2022-08-05T12:34:14;4.38;;;1.40;;
60847;SDS011;46681;47.696;9.140;2022-08-05T12:37:08;4.22;;;1.50;;
60847;SDS011;46681;47.696;9.140;2022-08-05T12:39:47;3.60;;;1.50;;
60847;SDS011;46681;47.696;9.140;2022-08-05T12:42:36;6.97;;;1.63;;
60847;SDS011;46681;47.696;9.140;2022-08-05T12:45:15;6.20;;;1.55;;
60847;SDS011;46681;47.696;9.140;2022-08-05T12:48:36;4.72;;;1.63;;
60847;SDS011;46681;47.696;9.140;2022-08-05T12:51:13;4.50;;;1.50;;
60847;SDS011;46681;47.696;9.140;2022-08-05T12:54:29;4.80;;;1.60;;
60847;SDS011;46681;47.696;9.140;2022-08-05T12:57:09;3.75;;;1.40;;
60847;SDS011;46681;47.696;9.140;2022-08-05T13:03:15;4.75;;;1.50;;
60847;SDS011;46681;47.696;9.140;2022-08-05T13:06:41;3.40;;;1.45;;
60847;SDS011;46681;47.696;9.140;2022-08-05T13:19:36;5.40;;;1.55;;
60847;SDS011;46681;47.696;9.140;2022-08-05T13:22:45;4.03;;;1.50;;
60847;SDS011;46681;47.696;9.140;2022-08-05T13:25:45;3.22;;;1.50;;
60847;SDS011;46681;47.696;9.140;2022-08-05T13:31:47;5.47;;;1.70;;
60847;SDS011;46681;47.696;9.140;2022-08-05T13:34:49;4.28;;;1.50;;
60847;SDS011;46681;47.696;9.140;2022-08-05T13:40:36;4.87;;;1.67;;
60847;SDS011;46681;47.696;9.140;2022-08-05T13:43:32;5.22;;;1.50;;
60847;SDS011;46681;47.696;9.140;2022-08-05T13:46:05;3.75;;;1.48;;
60847;SDS011;46681;47.696;9.140;2022-08-05T13:48:55;6.40;;;1.48;;
60847;SDS011;46681;47.696;9.140;2022-08-05T13:57:49;4.00;;;1.33;;
60847;SDS011;46681;47.696;9.140;2022-08-05T14:00:47;3.97;;;1.38;;
60847;SDS011;46681;47.696;9.140;2022-08-05T14:06:50;3.10;;;1.40;;
60847;SDS011;46681;47.696;9.140;2022-08-05T14:13:02;4.25;;;1.50;;
60847;SDS011;46681;47.696;9.140;2022-08-05T14:16:07;3.42;;;1.40;;
60847;SDS011;46681;47.696;9.140;2022-08-05T14:18:54;3.42;;;1.30;;
60847;SDS011;46681;47.696;9.140;2022-08-05T14:21:41;5.18;;;1.50;;
60847;SDS011;46681;47.696;9.140;2022-08-05T14:24:34;4.88;;;1.38;;
60847;SDS011;46681;47.696;9.140;2022-08-05T14:33:50;5.13;;;1.50;;
60847;SDS011;46681;47.696;9.140;2022-08-05T14:46:08;2.85;;;1.40;;
60847;SDS011;46681;47.696;9.140;2022-08-05T14:48:49;3.15;;;1.30;;
60847;SDS011;46681;47.696;9.140;2022-08-05T14:55:35;3.97;;;1.50;;
60847;SDS011;46681;47.696;9.140;2022-08-05T15:05:15;3.47;;;1.40;;
60847;SDS011;46681;47.696;9.140;2022-08-05T15:08:22;4.50;;;1.55;;
60847;SDS011;46681;47.696;9.140;2022-08-05T15:17:52;3.45;;;1.33;;
60847;SDS011;46681;47.696;9.140;2022-08-05T15:21:28;4.80;;;1.52;;
60847;SDS011;46681;47.696;9.140;2022-08-05T15:24:01;4.18;;;1.50;;
60847;SDS011;46681;47.696;9.140;2022-08-05T15:26:56;4.68;;;1.58;;
60847;SDS011;46681;47.696;9.140;2022-08-05T15:39:33;3.10;;;1.45;;
60847;SDS011;46681;47.696;9.140;2022-08-05T15:42:26;4.32;;;1.60;;
60847;SDS011;46681;47.696;9.140;2022-08-05T15:48:42;4.07;;;1.50;;
60847;SDS011;46681;47.696;9.140;2022-08-05T15:51:31;3.53;;;1.50;;
60847;SDS011;46681;47.696;9.140;2022-08-05T16:00:24;4.45;;;1.50;;
60847;SDS011;46681;47.696;9.140;2022-08-05T16:03:16;4.05;;;1.52;;
60847;SDS011;46681;47.696;9.140;2022-08-05T16:06:37;4.90;;;1.67;;
60847;SDS011;46681;47.696;9.140;2022-08-05T16:28:26;4.53;;;1.60;;
60847;SDS011;46681;47.696;9.140;2022-08-05T16:31:45;4.15;;;1.55;;
60847;SDS011;46681;47.696;9.140;2022-08-05T16:34:51;5.57;;;1.83;;
60847;SDS011;46681;47.696;9.140;2022-08-05T16:40:45;7.82;;;2.00;;
60847;SDS011;46681;47.696;9.140;2022-08-05T16:43:57;6.28;;;1.88;;
60847;SDS011;46681;47.696;9.140;2022-08-05T17:15:23;8.32;;;2.10;;
60847;SDS011;46681;47.696;9.140;2022-08-05T17:21:23;7.40;;;1.90;;
60847;SDS011;46681;47.696;9.140;2022-08-05T17:30:39;6.15;;;1.73;;
60847;SDS011;46681;47.696;9.140;2022-08-05T17:33:29;8.18;;;1.80;;
60847;SDS011;46681;47.696;9.140;2022-08-05T17:39:18;5.82;;;1.80;;
60847;SDS011;46681;47.696;9.140;2022-08-05T17:45:12;5.22;;;1.70;;
60847;SDS011;46681;47.696;9.140;2022-08-05T17:51:15;6.82;;;1.70;;
60847;SDS011;46681;47.696;9.140;2022-08-05T17:53:50;6.22;;;1.67;;
60847;SDS011;46681;47.696;9.140;2022-08-05T17:56:38;8.50;;;1.70;;
60847;SDS011;46681;47.696;9.140;2022-08-05T17:59:16;7.03;;;1.83;;
60847;SDS011;46681;47.696;9.140;2022-08-05T18:01:44;7.35;;;1.80;;
60847;SDS011;46681;47.696;9.140;2022-08-05T18:04:28;7.63;;;1.88;;
60847;SDS011;46681;47.696;9.140;2022-08-05T18:07:14;8.45;;;1.95;;
60847;SDS011;46681;47.696;9.140;2022-08-05T18:09:59;8.63;;;2.10;;
60847;SDS011;46681;47.696;9.140;2022-08-05T18:13:00;8.43;;;2.00;;
60847;SDS011;46681;47.696;9.140;2022-08-05T18:16:09;8.88;;;2.30;;
60847;SDS011;46681;47.696;9.140;2022-08-05T18:18:57;10.35;;;2.40;;
60847;SDS011;46681;47.696;9.140;2022-08-05T18:24:54;8.60;;;2.45;;
60847;SDS011;46681;47.696;9.140;2022-08-05T18:33:46;9.15;;;2.35;;
60847;SDS011;46681;47.696;9.140;2022-08-05T18:42:29;9.38;;;2.70;;
60847;SDS011;46681;47.696;9.140;2022-08-05T18:45:31;10.48;;;2.70;;
60847;SDS011;46681;47.696;9.140;2022-08-05T19:00:10;8.07;;;2.38;;
60847;SDS011;46681;47.696;9.140;2022-08-05T19:02:42;8.70;;;2.60;;
60847;SDS011;46681;47.696;9.140;2022-08-05T19:05:35;8.80;;;2.53;;
60847;SDS011;46681;47.696;9.140;2022-08-05T19:08:28;9.48;;;2.30;;
60847;SDS011;46681;47.696;9.140;2022-08-05T19:11:13;8.45;;;2.47;;
60847;SDS011;46681;47.696;9.140;2022-08-05T19:14:01;8.05;;;2.50;;
60847;SDS011;46681;47.696;9.140;2022-08-05T19:16:27;8.55;;;2.72;;
60847;SDS011;46681;47.696;9.140;2022-08-05T19:19:36;10.07;;;2.45;;
60847;SDS011;46681;47.696;9.140;2022-08-05T19:22:11;9.60;;;2.67;;
60847;SDS011;46681;47.696;9.140;2022-08-05T19:24:37;9.40;;;2.40;;
60847;SDS011;46681;47.696;9.140;2022-08-05T19:27:12;8.23;;;2.38;;
60847;SDS011;46681;47.696;9.140;2022-08-05T19:29:42;9.45;;;2.50;;
60847;SDS011;46681;47.696;9.140;2022-08-05T19:32:12;8.45;;;2.42;;
60847;SDS011;46681;47.696;9.140;2022-08-05T19:34:44;9.02;;;2.55;;
60847;SDS011;46681;47.696;9.140;2022-08-05T19:37:39;8.33;;;2.40;;
60847;SDS011;46681;47.696;9.140;2022-08-05T19:40:05;8.80;;;2.60;;
60847;SDS011;46681;47.696;9.140;2022-08-05T19:42:43;8.63;;;2.42;;
60847;SDS011;46681;47.696;9.140;2022-08-05T19:45:26;8.57;;;2.40;;
60847;SDS011;46681;47.696;9.140;2022-08-05T19:47:57;9.57;;;2.70;;
60847;SDS011;46681;47.696;9.140;2022-08-05T19:50:23;8.48;;;2.42;;
60847;SDS011;46681;47.696;9.140;2022-08-05T19:52:55;7.93;;;2.40;;
60847;SDS011;46681;47.696;9.140;2022-08-05T19:55:26;8.13;;;2.53;;
60847;SDS011;46681;47.696;9.140;2022-08-05T19:58:00;8.80;;;2.47;;
60847;SDS011;46681;47.696;9.140;2022-08-05T20:00:28;8.25;;;2.40;;
60847;SDS011;46681;47.696;9.140;2022-08-05T20:02:55;7.85;;;2.40;;
60847;SDS011;46681;47.696;9.140;2022-08-05T20:05:40;7.50;;;2.40;;
60847;SDS011;46681;47.696;9.140;2022-08-05T20:08:11;9.75;;;2.75;;
60847;SDS011;46681;47.696;9.140;2022-08-05T20:11:01;9.20;;;2.70;;
60847;SDS011;46681;47.696;9.140;2022-08-05T20:13:27;8.45;;;2.50;;
60847;SDS011;46681;47.696;9.140;2022-08-05T20:15:53;8.73;;;2.45;;
60847;SDS011;46681;47.696;9.140;2022-08-05T20:18:19;7.88;;;2.22;;
60847;SDS011;46681;47.696;9.140;2022-08-05T20:20:55;8.90;;;2.38;;
60847;SDS011;46681;47.696;9.140;2022-08-05T20:23:25;8.80;;;2.60;;
60847;SDS011;46681;47.696;9.140;2022-08-05T20:25:51;8.10;;;2.55;;
60847;SDS011;46681;47.696;9.140;2022-08-05T20:28:23;8.85;;;2.78;;
60847;SDS011;46681;47.696;9.140;2022-08-05T20:30:52;9.20;;;2.63;;
60847;SDS011;46681;47.696;9.140;2022-08-05T20:33:30;7.53;;;2.30;;
60847;SDS011;46681;47.696;9.140;2022-08-05T20:35:57;8.13;;;2.45;;
60847;SDS011;46681;47.696;9.140;2022-08-05T20:38:46;8.38;;;2.85;;
60847;SDS011;46681;47.696;9.140;2022-08-05T20:41:22;8.10;;;2.38;;
60847;SDS011;46681;47.696;9.140;2022-08-05T20:43:51;7.43;;;2.42;;
60847;SDS011;46681;47.696;9.140;2022-08-05T20:46:18;8.23;;;2.42;;
60847;SDS011;46681;47.696;9.140;2022-08-05T20:48:48;8.25;;;2.42;;
60847;SDS011;46681;47.696;9.140;2022-08-05T20:51:14;8.15;;;2.30;;
60847;SDS011;46681;47.696;9.140;2022-08-05T20:53:51;7.53;;;2.20;;
60847;SDS011;46681;47.696;9.140;2022-08-05T20:56:22;7.97;;;2.42;;
60847;SDS011;46681;47.696;9.140;2022-08-05T20:58:51;8.77;;;2.30;;
60847;SDS011;46681;47.696;9.140;2022-08-05T21:01:19;6.70;;;2.30;;
60847;SDS011;46681;47.696;9.140;2022-08-05T21:03:45;8.05;;;2.50;;
60847;SDS011;46681;47.696;9.140;2022-08-05T21:06:19;7.53;;;2.40;;
60847;SDS011;46681;47.696;9.140;2022-08-05T21:08:52;7.03;;;2.28;;
60847;SDS011;46681;47.696;9.140;2022-08-05T21:11:41;7.10;;;2.13;;
60847;SDS011;46681;47.696;9.140;2022-08-05T21:14:08;7.57;;;2.40;;
60847;SDS011;46681;47.696;9.140;2022-08-05T21:16:35;7.13;;;2.38;;
60847;SDS011;46681;47.696;9.140;2022-08-05T21:19:02;7.72;;;2.47;;
60847;SDS011;46681;47.696;9.140;2022-08-05T21:21:28;8.10;;;2.45;;
60847;SDS011;46681;47.696;9.140;2022-08-05T21:24:05;8.20;;;2.30;;
60847;SDS011;46681;47.696;9.140;2022-08-05T21:26:39;7.13;;;2.30;;
60847;SDS011;46681;47.696;9.140;2022-08-05T21:29:09;8.38;;;2.42;;
60847;SDS011;46681;47.696;9.140;2022-08-05T21:31:37;8.27;;;2.28;;
60847;SDS011;46681;47.696;9.140;2022-08-05T21:34:02;8.18;;;2.10;;
60847;SDS011;46681;47.696;9.140;2022-08-05T21:36:28;8.20;;;2.30;;
60847;SDS011;46681;47.696;9.140;2022-08-05T21:38:54;7.45;;;2.35;;
60847;SDS011;46681;47.696;9.140;2022-08-05T21:41:30;6.78;;;2.15;;